Time;durP1;ratioP1;P1;durP2;ratioP2;P2;SDS_P1;SDS_P2;PMS_P1;PMS_P2;Temp;Humidity;BMP_temperature;BMP_pressure;BME280_temperature;BME280_humidity;BME280_pressure;Samples;Min_cycle;Max_cycle;Signal;HPM_P1;HPM_P2
2022/10/23 00:00:03;;;;;;;6.57;4.25;;;14.30;98.30;;;;;;4908853;29;20036;-63
2022/10/23 00:02:29;;;;;;;5.13;4.18;;;14.30;98.30;;;;;;4913353;29;20035;-65
2022/10/23 00:04:55;;;;;;;6.25;4.25;;;14.30;98.40;;;;;;4907297;29;20035;-63
2022/10/23 00:07:21;;;;;;;6.13;3.85;;;14.30;98.70;;;;;;4912690;29;20792;-63
2022/10/23 00:09:46;;;;;;;5.93;4.35;;;14.30;98.50;;;;;;4913275;29;20118;-63
2022/10/23 00:12:12;;;;;;;5.13;3.92;;;14.40;98.60;;;;;;4907348;29;20036;-68
2022/10/23 00:14:38;;;;;;;8.32;4.38;;;14.40;98.60;;;;;;4908013;29;20568;-63
2022/10/23 00:17:03;;;;;;;5.65;4.15;;;14.50;98.60;;;;;;4915802;29;20039;-63
2022/10/23 00:19:29;;;;;;;8.10;4.55;;;14.50;98.60;;;;;;4907132;29;20580;-63
2022/10/23 00:21:55;;;;;;;6.50;4.65;;;14.50;98.70;;;;;;4908978;29;20043;-63
2022/10/23 00:24:21;;;;;;;3.78;3.30;;;14.60;98.70;;;;;;4914837;29;20039;-63
2022/10/23 00:26:49;;;;;;;4.72;4.22;;;14.60;98.70;;;;;;4908014;29;20055;-63
2022/10/23 00:29:15;;;;;;;5.80;3.90;;;14.70;98.70;;;;;;4921869;29;20150;-63
2022/10/23 00:31:41;;;;;;;6.35;3.88;;;14.70;98.70;;;;;;4913828;29;20138;-63
2022/10/23 00:34:07;;;;;;;5.38;4.07;;;14.80;98.70;;;;;;4931538;29;20109;-63
2022/10/23 00:36:34;;;;;;;8.98;3.80;;;14.80;98.60;;;;;;4910451;29;20119;-68
2022/10/23 00:38:59;;;;;;;6.13;3.75;;;14.80;98.40;;;;;;4914149;29;20039;-68
2022/10/23 00:41:28;;;;;;;7.22;4.05;;;14.80;98.30;;;;;;4916672;29;20043;-68
2022/10/23 00:44:17;;;;;;;6.28;3.72;;;14.80;98.20;;;;;;4921785;29;20087;-68
2022/10/23 00:46:45;;;;;;;10.68;3.97;;;14.70;98.10;;;;;;4875739;29;20046;-69
2022/10/23 00:49:11;;;;;;;7.75;3.63;;;14.70;98.00;;;;;;4905967;29;20059;-68
2022/10/23 00:51:43;;;;;;;8.65;4.00;;;14.60;97.80;;;;;;4915431;29;20826;-68
2022/10/23 00:54:12;;;;;;;4.82;3.38;;;14.50;97.90;;;;;;4913098;29;20049;-68
2022/10/23 00:56:40;;;;;;;6.78;3.53;;;14.40;98.10;;;;;;4906313;29;20099;-69
2022/10/23 00:59:06;;;;;;;4.57;3.88;;;14.40;97.80;;;;;;4924790;29;20493;-68
2022/10/23 01:01:33;;;;;;;10.23;4.35;;;14.30;97.90;;;;;;4910207;29;20036;-68
2022/10/23 01:04:00;;;;;;;9.50;4.38;;;14.30;97.80;;;;;;4908389;29;20039;-68
2022/10/23 01:06:36;;;;;;;5.90;3.92;;;14.20;97.80;;;;;;4913296;29;20039;-68
2022/10/23 01:09:16;;;;;;;8.23;4.63;;;14.20;97.80;;;;;;4929957;29;20035;-63
2022/10/23 01:11:51;;;;;;;6.28;3.90;;;14.10;97.80;;;;;;4924094;29;20122;-63
2022/10/23 01:14:29;;;;;;;8.15;4.65;;;14.10;97.90;;;;;;4914183;29;20547;-63
2022/10/23 01:17:29;;;;;;;6.80;4.15;;;14.00;97.90;;;;;;4911324;29;20032;-63
2022/10/23 01:20:26;;;;;;;5.63;4.38;;;14.00;97.90;;;;;;4912186;29;20661;-63
2022/10/23 01:23:34;;;;;;;6.00;3.90;;;14.00;97.90;;;;;;4929905;29;20038;-63
2022/10/23 01:26:32;;;;;;;5.35;3.95;;;13.90;98.00;;;;;;4924746;29;20711;-63
2022/10/23 01:29:02;;;;;;;10.25;4.32;;;13.90;98.20;;;;;;4916935;29;20118;-63
2022/10/23 01:31:42;;;;;;;5.65;3.95;;;13.90;98.30;;;;;;4916668;29;20036;-63
2022/10/23 01:34:14;;;;;;;7.85;3.97;;;13.90;98.40;;;;;;4915919;29;20044;-63
2022/10/23 01:36:45;;;;;;;7.38;4.57;;;14.00;98.60;;;;;;4931607;29;20420;-63
2022/10/23 01:39:17;;;;;;;6.00;4.57;;;14.10;98.60;;;;;;4928395;29;20825;-63
2022/10/23 01:41:56;;;;;;;7.43;4.72;;;14.10;99.00;;;;;;4913899;29;20073;-63
2022/10/23 01:44:54;;;;;;;7.43;4.18;;;14.10;98.70;;;;;;4923141;29;20406;-63
2022/10/23 01:47:25;;;;;;;5.38;3.92;;;14.20;98.70;;;;;;4940768;29;20043;-63
2022/10/23 01:50:03;;;;;;;7.07;4.32;;;14.30;98.60;;;;;;4932817;29;20019;-63
2022/10/23 01:52:29;;;;;;;5.05;3.78;;;14.30;98.60;;;;;;4931168;28;20074;-63
2022/10/23 01:54:59;;;;;;;6.32;4.13;;;14.30;98.50;;;;;;4923155;29;20523;-67
2022/10/23 01:57:30;;;;;;;6.45;3.97;;;14.40;98.50;;;;;;4922960;29;20035;-68
2022/10/23 02:00:06;;;;;;;6.13;3.97;;;14.40;98.50;;;;;;4923166;29;20395;-68
2022/10/23 02:02:38;;;;;;;7.35;4.20;;;14.40;98.40;;;;;;4915618;29;20074;-68
2022/10/23 02:05:09;;;;;;;6.97;4.75;;;14.40;98.30;;;;;;4934480;29;20031;-68
2022/10/23 02:07:36;;;;;;;7.20;4.40;;;14.40;98.30;;;;;;4937355;29;20453;-67
2022/10/23 02:10:05;;;;;;;6.88;4.47;;;14.40;98.20;;;;;;4923075;29;20032;-69
2022/10/23 02:12:39;;;;;;;7.05;4.70;;;14.40;98.20;;;;;;4921859;29;20039;-68
2022/10/23 02:15:12;;;;;;;7.10;4.43;;;14.40;98.20;;;;;;4911468;29;20043;-68
2022/10/23 02:17:43;;;;;;;8.65;4.40;;;14.40;98.10;;;;;;4925583;29;20044;-63
2022/10/23 02:20:45;;;;;;;8.10;4.38;;;14.40;98.00;;;;;;4923600;29;20098;-63
2022/10/23 02:23:37;;;;;;;6.40;4.05;;;14.30;97.90;;;;;;4911965;29;20092;-63
2022/10/23 02:26:15;;;;;;;5.38;3.92;;;14.30;97.80;;;;;;4923254;29;20031;-62
2022/10/23 02:28:52;;;;;;;6.35;4.03;;;14.20;97.80;;;;;;4934638;29;20039;-63
2022/10/23 02:31:21;;;;;;;9.10;4.55;;;14.20;97.80;;;;;;4928318;29;20036;-63
2022/10/23 02:33:48;;;;;;;8.02;4.35;;;14.20;97.80;;;;;;4923604;29;20083;-63
2022/10/23 02:36:14;;;;;;;7.88;4.93;;;14.10;97.80;;;;;;4932071;29;20044;-63
2022/10/23 02:38:43;;;;;;;5.90;4.03;;;14.10;97.80;;;;;;4907591;29;20096;-63
2022/10/23 02:41:23;;;;;;;9.10;3.78;;;14.00;97.90;;;;;;4918647;29;20036;-63
2022/10/23 02:44:09;;;;;;;7.07;3.55;;;14.00;97.90;;;;;;4924641;29;20086;-63
2022/10/23 02:46:54;;;;;;;9.77;4.70;;;14.00;98.00;;;;;;4917045;29;20032;-63
2022/10/23 02:49:44;;;;;;;7.50;4.43;;;13.90;97.90;;;;;;4922463;29;20276;-63
2022/10/23 02:52:31;;;;;;;4.93;3.88;;;13.90;97.90;;;;;;4884608;29;20405;-63
2022/10/23 02:55:16;;;;;;;7.72;4.22;;;13.90;98.20;;;;;;4921517;29;20026;-63
2022/10/23 02:57:59;;;;;;;5.80;4.13;;;13.80;98.10;;;;;;4927923;29;20037;-63
2022/10/23 03:00:29;;;;;;;10.10;4.10;;;13.80;98.10;;;;;;4930741;29;20031;-63
2022/10/23 03:03:04;;;;;;;6.28;4.03;;;13.80;98.10;;;;;;4930342;29;20075;-63
2022/10/23 03:05:34;;;;;;;6.15;4.07;;;13.80;98.10;;;;;;4928882;29;20048;-63
2022/10/23 03:08:03;;;;;;;7.28;4.80;;;13.80;98.20;;;;;;4921207;29;20086;-63
2022/10/23 03:10:29;;;;;;;5.30;4.18;;;13.70;98.20;;;;;;4913845;29;20063;-63
2022/10/23 03:12:55;;;;;;;7.10;4.50;;;13.70;98.20;;;;;;4912481;29;20114;-63
2022/10/23 03:15:21;;;;;;;6.30;4.35;;;13.70;98.30;;;;;;4920839;29;20577;-63
2022/10/23 03:17:49;;;;;;;5.70;3.85;;;13.70;98.30;;;;;;4933704;29;20038;-63
2022/10/23 03:20:15;;;;;;;4.70;3.70;;;13.70;98.20;;;;;;4922997;29;20028;-62
2022/10/23 03:22:42;;;;;;;8.52;4.75;;;13.70;98.20;;;;;;4919606;29;20536;-63
2022/10/23 03:25:08;;;;;;;5.97;3.92;;;13.70;98.20;;;;;;4931700;29;20032;-63
2022/10/23 03:27:34;;;;;;;7.90;4.40;;;13.60;98.10;;;;;;4930243;29;20106;-63
2022/10/23 03:30:04;;;;;;;6.80;3.80;;;13.60;98.10;;;;;;4925655;29;20659;-63
2022/10/23 03:32:31;;;;;;;5.95;4.25;;;13.60;98.20;;;;;;4930712;29;20035;-63
2022/10/23 03:34:58;;;;;;;7.20;4.43;;;13.60;98.30;;;;;;4910836;29;20055;-63
2022/10/23 03:37:25;;;;;;;6.80;4.28;;;13.60;98.30;;;;;;4913002;29;20032;-63
2022/10/23 03:39:51;;;;;;;6.93;4.43;;;13.60;98.30;;;;;;4920184;29;20035;-63
2022/10/23 03:42:17;;;;;;;5.50;3.92;;;13.60;98.20;;;;;;4915233;29;20043;-63
2022/10/23 03:44:42;;;;;;;5.22;3.88;;;13.60;98.30;;;;;;4917391;29;20030;-63
2022/10/23 03:47:10;;;;;;;5.90;4.07;;;13.50;98.30;;;;;;4911958;29;20473;-63
2022/10/23 03:49:37;;;;;;;6.90;4.13;;;13.50;98.40;;;;;;4926098;29;20035;-63
2022/10/23 03:52:06;;;;;;;6.68;3.85;;;13.50;98.30;;;;;;4922290;29;20091;-63
2022/10/23 03:54:32;;;;;;;4.30;3.72;;;13.50;98.30;;;;;;4928935;29;20035;-63
2022/10/23 03:56:59;;;;;;;9.73;3.92;;;13.50;98.30;;;;;;4908875;29;20040;-63
2022/10/23 03:59:26;;;;;;;8.85;3.75;;;13.40;98.30;;;;;;4915720;29;20027;-63
2022/10/23 04:01:52;;;;;;;6.10;3.90;;;13.40;98.20;;;;;;4915561;29;20445;-62
2022/10/23 04:04:17;;;;;;;5.70;3.47;;;13.40;98.10;;;;;;4916062;29;20036;-63
2022/10/23 04:06:43;;;;;;;9.52;5.03;;;13.30;98.00;;;;;;4909195;29;20043;-68
2022/10/23 04:09:09;;;;;;;5.20;4.13;;;13.30;97.90;;;;;;4922428;29;20523;-68
2022/10/23 04:11:35;;;;;;;8.93;4.90;;;13.20;97.80;;;;;;4926327;29;20038;-68
2022/10/23 04:14:02;;;;;;;7.53;4.57;;;13.20;97.80;;;;;;4907929;29;20032;-68
2022/10/23 04:16:28;;;;;;;5.80;4.15;;;13.10;97.70;;;;;;4916681;29;20040;-63
2022/10/23 04:18:53;;;;;;;8.18;4.13;;;13.10;97.60;;;;;;4919253;29;20599;-68
2022/10/23 04:21:19;;;;;;;5.38;3.80;;;13.10;97.50;;;;;;4918413;29;20035;-68
2022/10/23 04:23:45;;;;;;;8.48;4.32;;;13.00;97.60;;;;;;4921274;29;20031;-68
2022/10/23 04:26:14;;;;;;;7.47;4.88;;;12.90;97.80;;;;;;4918804;29;20039;-69
2022/10/23 04:28:40;;;;;;;9.70;5.60;;;12.90;97.70;;;;;;4923671;29;20034;-68
2022/10/23 04:31:06;;;;;;;8.45;5.45;;;12.90;97.60;;;;;;4919140;29;20028;-68
2022/10/23 04:33:32;;;;;;;8.27;5.10;;;12.90;97.60;;;;;;4922871;29;20812;-68
2022/10/23 04:35:58;;;;;;;6.97;5.00;;;12.80;97.60;;;;;;4908624;29;20036;-68
2022/10/23 04:38:24;;;;;;;7.22;5.07;;;12.80;97.80;;;;;;4913189;29;20040;-70
2022/10/23 04:40:50;;;;;;;11.52;5.20;;;12.80;97.90;;;;;;4913488;29;20040;-63
2022/10/23 04:43:20;;;;;;;9.10;5.18;;;12.80;98.00;;;;;;4919029;29;20034;-63
2022/10/23 04:45:48;;;;;;;7.13;4.75;;;12.80;98.10;;;;;;4920970;29;20024;-63
2022/10/23 04:48:13;;;;;;;7.38;4.85;;;12.80;98.10;;;;;;4917035;29;20038;-63
2022/10/23 04:51:02;;;;;;;9.23;5.32;;;12.80;98.20;;;;;;4912586;28;20408;-63
2022/10/23 04:53:48;;;;;;;6.90;4.00;;;12.80;98.20;;;;;;4919645;29;20567;-68
2022/10/23 04:56:43;;;;;;;9.43;4.60;;;12.80;98.30;;;;;;4914808;28;20120;-69
2022/10/23 04:59:16;;;;;;;7.35;4.32;;;12.80;98.40;;;;;;4926512;29;20035;-68
2022/10/23 05:01:41;;;;;;;10.25;4.10;;;12.70;98.40;;;;;;4924380;29;20040;-68
2022/10/23 05:04:08;;;;;;;7.95;4.32;;;12.70;98.30;;;;;;4914322;29;20036;-68
2022/10/23 05:06:53;;;;;;;7.95;3.85;;;12.70;98.30;;;;;;4916081;29;20070;-68
2022/10/23 05:09:32;;;;;;;6.47;4.10;;;12.70;98.30;;;;;;4929685;29;20023;-68
2022/10/23 05:12:24;;;;;;;6.38;4.20;;;12.70;98.40;;;;;;4934346;29;20031;-69
2022/10/23 05:14:50;;;;;;;7.03;4.28;;;12.70;98.40;;;;;;4928180;29;20091;-68
2022/10/23 05:17:21;;;;;;;8.32;4.45;;;12.70;98.40;;;;;;4924495;29;20035;-68
2022/10/23 05:19:54;;;;;;;7.47;4.35;;;12.70;98.40;;;;;;4915601;29;20124;-68
2022/10/23 05:22:23;;;;;;;8.40;3.92;;;12.70;98.30;;;;;;4920025;29;20039;-69
2022/10/23 05:24:52;;;;;;;7.15;4.28;;;12.70;98.40;;;;;;4922707;29;20024;-68
2022/10/23 05:27:21;;;;;;;7.25;4.60;;;12.70;98.50;;;;;;4925459;29;20030;-68
2022/10/23 05:29:47;;;;;;;10.25;4.63;;;12.70;98.60;;;;;;4924303;29;20082;-69
2022/10/23 05:32:16;;;;;;;6.30;3.72;;;12.70;98.70;;;;;;4928055;29;20143;-68
2022/10/23 05:34:43;;;;;;;8.07;4.55;;;12.70;98.60;;;;;;4922795;29;20035;-69
2022/10/23 05:37:12;;;;;;;9.93;5.35;;;12.70;98.60;;;;;;4936909;29;20063;-68
2022/10/23 05:39:39;;;;;;;9.05;5.07;;;12.70;98.50;;;;;;4931429;29;20040;-68
2022/10/23 05:42:10;;;;;;;8.77;4.82;;;12.70;98.30;;;;;;4930736;29;20032;-68
2022/10/23 05:44:37;;;;;;;9.27;4.13;;;12.70;98.30;;;;;;4924123;29;20043;-68
2022/10/23 05:47:25;;;;;;;10.32;4.55;;;12.60;98.30;;;;;;4905911;29;20036;-68
2022/10/23 05:49:53;;;;;;;7.88;4.30;;;12.60;98.40;;;;;;4925425;29;20098;-68
2022/10/23 05:52:23;;;;;;;6.20;4.28;;;12.60;98.40;;;;;;4924082;29;20047;-68
2022/10/23 05:55:15;;;;;;;8.90;4.53;;;12.60;98.40;;;;;;4914564;29;20036;-69
2022/10/23 05:57:55;;;;;;;7.85;5.03;;;12.60;98.40;;;;;;4923559;29;20035;-69
2022/10/23 06:00:38;;;;;;;9.80;4.68;;;12.60;98.50;;;;;;4925788;29;20126;-69
2022/10/23 06:03:23;;;;;;;11.57;5.22;;;12.60;98.50;;;;;;4914902;29;20058;-68
2022/10/23 06:05:50;;;;;;;6.90;4.78;;;12.60;98.90;;;;;;4923126;29;20535;-68
2022/10/23 06:08:19;;;;;;;7.55;4.75;;;12.60;99.00;;;;;;4915138;29;20059;-68
2022/10/23 06:10:48;;;;;;;7.68;4.88;;;12.60;98.90;;;;;;4923058;29;20036;-68
2022/10/23 06:13:13;;;;;;;6.95;4.22;;;12.60;98.80;;;;;;4926660;28;20046;-69
2022/10/23 06:15:39;;;;;;;7.47;4.70;;;12.60;98.50;;;;;;4936677;29;20023;-67
2022/10/23 06:18:10;;;;;;;8.88;4.40;;;12.60;98.40;;;;;;4918265;29;20028;-68
2022/10/23 06:20:46;;;;;;;7.22;4.18;;;12.50;98.30;;;;;;4921413;29;20447;-69
2022/10/23 06:23:20;;;;;;;11.10;4.20;;;12.50;98.40;;;;;;4937017;28;20504;-71
2022/10/23 06:26:05;;;;;;;5.78;4.18;;;12.50;98.40;;;;;;4921471;29;20040;-70
2022/10/23 06:28:39;;;;;;;6.53;4.17;;;12.50;98.20;;;;;;4926864;29;20123;-70
2022/10/23 06:31:07;;;;;;;5.10;4.05;;;12.50;98.10;;;;;;4923535;29;20039;-70
2022/10/23 06:33:33;;;;;;;6.22;4.13;;;12.50;98.20;;;;;;4921742;29;20028;-71
2022/10/23 06:36:04;;;;;;;7.40;4.78;;;12.50;98.10;;;;;;4920291;29;20040;-70
2022/10/23 06:38:36;;;;;;;6.65;3.88;;;12.50;98.30;;;;;;4924012;29;20035;-69
2022/10/23 06:41:03;;;;;;;7.30;4.45;;;12.50;98.30;;;;;;4921305;29;20044;-70
2022/10/23 06:43:34;;;;;;;5.57;4.10;;;12.50;98.40;;;;;;4925459;29;20031;-69
2022/10/23 06:46:20;;;;;;;8.43;3.95;;;12.60;98.40;;;;;;4922593;29;20031;-70
2022/10/23 06:49:02;;;;;;;6.57;4.35;;;12.60;98.40;;;;;;4922511;29;20079;-70
2022/10/23 06:51:31;;;;;;;7.07;4.80;;;12.60;98.40;;;;;;4922277;29;20047;-70
2022/10/23 06:53:57;;;;;;;13.45;7.18;;;12.70;98.50;;;;;;4922597;29;20472;-69
2022/10/23 06:56:43;;;;;;;8.95;5.13;;;12.70;98.50;;;;;;4922114;29;20775;-71
2022/10/23 06:59:10;;;;;;;9.63;5.22;;;12.80;98.50;;;;;;4927499;29;20059;-70
2022/10/23 07:01:37;;;;;;;9.10;5.20;;;12.80;98.60;;;;;;4926906;29;20400;-71
2022/10/23 07:04:04;;;;;;;9.75;5.55;;;12.90;98.60;;;;;;4925441;29;20039;-71
2022/10/23 07:06:30;;;;;;;12.13;5.45;;;12.90;98.60;;;;;;4930669;28;20112;-71
2022/10/23 07:08:58;;;;;;;8.75;5.68;;;13.00;98.70;;;;;;4921102;29;20488;-71
2022/10/23 07:11:44;;;;;;;8.70;5.65;;;13.00;98.70;;;;;;4916658;29;20164;-70
2022/10/23 07:14:10;;;;;;;9.07;5.65;;;13.10;98.70;;;;;;4916125;29;20392;-70
2022/10/23 07:16:36;;;;;;;7.60;5.57;;;13.10;98.70;;;;;;4928101;29;20028;-71
2022/10/23 07:19:02;;;;;;;8.63;5.63;;;13.20;98.80;;;;;;4923645;29;20057;-71
2022/10/23 07:21:30;;;;;;;9.13;5.80;;;13.20;98.80;;;;;;4908724;29;20127;-70
2022/10/23 07:24:07;;;;;;;7.55;5.65;;;13.30;98.90;;;;;;4933589;28;20035;-71
2022/10/23 07:26:37;;;;;;;13.95;5.93;;;13.40;99.00;;;;;;4921796;29;20174;-70
2022/10/23 07:29:03;;;;;;;7.90;6.13;;;13.50;98.90;;;;;;4932834;29;20032;-71
2022/10/23 07:31:29;;;;;;;9.57;5.95;;;13.60;99.00;;;;;;4925213;29;20039;-72
2022/10/23 07:34:21;;;;;;;11.30;6.38;;;13.70;98.90;;;;;;4919701;29;20672;-71
2022/10/23 07:36:59;;;;;;;9.80;6.55;;;13.80;98.80;;;;;;4914018;29;20043;-68
2022/10/23 07:39:25;;;;;;;8.85;6.22;;;13.90;98.70;;;;;;4928919;29;20032;-70
2022/10/23 07:41:51;;;;;;;10.73;6.82;;;14.00;98.70;;;;;;4924041;29;20055;-71
2022/10/23 07:44:17;;;;;;;9.68;7.28;;;14.10;98.60;;;;;;4922290;29;20028;-71
2022/10/23 07:46:43;;;;;;;10.90;7.20;;;14.20;98.50;;;;;;4917559;29;20039;-71
2022/10/23 07:49:10;;;;;;;10.43;7.70;;;14.30;98.40;;;;;;4922899;29;20041;-71
2022/10/23 07:51:37;;;;;;;11.18;7.22;;;14.30;98.30;;;;;;4921863;29;20027;-71
2022/10/23 07:54:03;;;;;;;11.32;7.88;;;14.40;98.30;;;;;;4935051;28;20036;-71
2022/10/23 07:56:47;;;;;;;9.90;6.80;;;14.50;98.10;;;;;;4913415;29;20130;-71
2022/10/23 07:59:13;;;;;;;13.35;7.95;;;14.60;98.10;;;;;;4909902;29;20047;-71
2022/10/23 08:01:42;;;;;;;13.35;7.70;;;14.60;98.10;;;;;;4921086;29;20068;-70
2022/10/23 08:04:09;;;;;;;10.13;6.82;;;14.60;98.10;;;;;;4917313;29;20087;-71
2022/10/23 08:06:42;;;;;;;15.98;10.18;;;14.80;97.90;;;;;;4930544;29;20472;-70
2022/10/23 08:09:08;;;;;;;11.80;7.90;;;14.80;97.70;;;;;;4923207;29;20027;-71
2022/10/23 08:11:37;;;;;;;15.70;8.40;;;14.80;97.70;;;;;;4930250;28;20515;-70
2022/10/23 08:14:07;;;;;;;12.70;7.07;;;14.90;97.80;;;;;;4920865;29;20508;-71
2022/10/23 08:16:36;;;;;;;15.70;10.35;;;14.90;97.70;;;;;;4919691;29;20032;-71
2022/10/23 08:19:03;;;;;;;20.30;11.43;;;15.10;97.70;;;;;;4923244;29;20071;-70
2022/10/23 08:21:29;;;;;;;11.45;6.78;;;15.10;97.60;;;;;;4918053;28;20054;-70
2022/10/23 08:23:56;;;;;;;8.18;5.28;;;15.20;97.70;;;;;;4936754;28;20400;-67
2022/10/23 08:26:24;;;;;;;7.78;4.88;;;15.30;97.60;;;;;;4923013;29;20027;-70
2022/10/23 08:28:50;;;;;;;11.30;4.80;;;15.40;97.40;;;;;;4920320;29;20032;-70
2022/10/23 08:31:19;;;;;;;12.07;5.38;;;15.50;97.20;;;;;;4921994;29;20398;-70
2022/10/23 08:34:02;;;;;;;13.55;5.63;;;15.60;96.90;;;;;;4930822;28;20055;-68
2022/10/23 08:36:29;;;;;;;6.60;4.50;;;15.70;96.60;;;;;;4916798;29;20036;-69
2022/10/23 08:38:56;;;;;;;5.47;3.95;;;15.70;96.30;;;;;;4930854;29;20468;-67
2022/10/23 08:41:31;;;;;;;4.97;3.83;;;15.70;96.40;;;;;;4932618;28;20034;-72
2022/10/23 08:44:26;;;;;;;7.78;4.00;;;15.80;96.10;;;;;;4916591;29;20027;-74
2022/10/23 08:47:07;;;;;;;12.20;5.00;;;15.90;95.80;;;;;;4925547;29;20103;-76
2022/10/23 08:50:27;;;;;;;7.60;3.95;;;16.10;95.70;;;;;;4916362;29;20040;-76
2022/10/23 08:53:04;;;;;;;6.47;4.05;;;16.20;95.60;;;;;;4921487;29;20054;-71
2022/10/23 08:55:34;;;;;;;6.30;3.63;;;16.30;95.30;;;;;;4914844;29;20054;-74
2022/10/23 08:58:07;;;;;;;4.75;3.22;;;16.40;95.10;;;;;;4920228;29;20446;-72
2022/10/23 09:00:33;;;;;;;6.10;3.28;;;16.50;95.20;;;;;;4917961;29;20036;-73
2022/10/23 09:03:04;;;;;;;8.77;3.95;;;16.60;95.00;;;;;;4935217;28;20039;-74
2022/10/23 09:05:45;;;;;;;8.32;3.35;;;16.70;94.80;;;;;;4913077;29;20043;-73
2022/10/23 09:08:37;;;;;;;10.05;4.28;;;17.00;94.60;;;;;;4915088;29;20110;-74
2022/10/23 09:11:05;;;;;;;6.80;2.95;;;17.50;93.70;;;;;;4909173;29;20853;-75
2022/10/23 09:14:08;;;;;;;4.85;2.85;;;18.80;91.00;;;;;;4912965;29;20039;-75
2022/10/23 09:16:53;;;;;;;5.88;2.60;;;19.90;87.20;;;;;;4910088;29;20024;-74
2022/10/23 09:19:25;;;;;;;5.47;2.50;;;21.20;81.80;;;;;;4911064;29;20396;-74
2022/10/23 09:21:53;;;;;;;4.20;2.47;;;22.20;77.60;;;;;;4911922;29;20076;-74
2022/10/23 09:24:22;;;;;;;5.50;2.40;;;22.60;73.70;;;;;;4938094;28;20031;-74
2022/10/23 09:26:50;;;;;;;4.68;2.25;;;22.60;73.00;;;;;;4916278;29;20020;-74
2022/10/23 09:29:31;;;;;;;6.15;2.22;;;22.90;72.80;;;;;;4912916;29;20028;-73
2022/10/23 09:32:02;;;;;;;4.47;1.88;;;23.20;71.30;;;;;;4915746;29;20500;-73
2022/10/23 09:34:30;;;;;;;4.47;2.00;;;23.20;70.10;;;;;;4912333;29;20040;-74
2022/10/23 09:37:19;;;;;;;3.60;1.90;;;23.30;70.50;;;;;;4914888;29;20493;-74
2022/10/23 09:39:45;;;;;;;6.03;1.77;;;23.20;70.20;;;;;;4915332;29;20054;-74
2022/10/23 09:42:22;;;;;;;2.40;1.50;;;23.20;71.60;;;;;;4915508;29;20040;-74
2022/10/23 09:44:50;;;;;;;4.68;1.65;;;23.00;71.20;;;;;;4923788;29;20091;-75
2022/10/23 09:47:23;;;;;;;3.63;2.10;;;22.90;70.60;;;;;;4926937;29;20035;-75
2022/10/23 09:49:53;;;;;;;4.03;1.77;;;22.40;72.30;;;;;;4920053;29;20027;-75
2022/10/23 09:52:32;;;;;;;3.35;1.73;;;22.10;73.60;;;;;;4919592;29;20050;-74
2022/10/23 09:55:00;;;;;;;8.40;1.73;;;21.90;74.80;;;;;;4913950;29;20027;-77
2022/10/23 09:57:28;;;;;;;5.95;2.00;;;21.70;74.70;;;;;;4923117;29;20032;-75
2022/10/23 10:00:12;;;;;;;5.50;1.77;;;21.80;73.30;;;;;;4921375;29;20098;-74
2022/10/23 10:02:41;;;;;;;3.83;1.75;;;21.60;74.80;;;;;;4913559;29;20043;-74
2022/10/23 10:05:31;;;;;;;2.97;1.58;;;21.40;74.70;;;;;;4914271;29;20032;-74
2022/10/23 10:08:02;;;;;;;6.30;1.67;;;21.60;75.40;;;;;;4929217;29;20913;-74
2022/10/23 10:10:39;;;;;;;5.57;2.05;;;22.40;72.30;;;;;;4909532;29;20885;-74
2022/10/23 10:13:28;;;;;;;5.72;2.05;;;23.20;70.70;;;;;;4921581;29;20040;-74
2022/10/23 10:16:00;;;;;;;4.43;1.88;;;24.50;67.00;;;;;;4919320;29;20098;-75
2022/10/23 10:18:42;;;;;;;4.03;1.80;;;25.70;61.90;;;;;;4918432;29;20167;-75
2022/10/23 10:21:22;;;;;;;4.15;1.52;;;26.30;60.00;;;;;;4924654;29;20161;-74
2022/10/23 10:24:16;;;;;;;4.47;1.52;;;27.10;59.30;;;;;;4913465;29;20032;-75
2022/10/23 10:26:50;;;;;;;5.75;1.63;;;27.50;55.70;;;;;;4915113;29;20506;-73
2022/10/23 10:29:24;;;;;;;4.13;1.40;;;27.20;55.70;;;;;;4915368;29;20083;-73
2022/10/23 10:32:04;;;;;;;4.38;1.65;;;26.90;56.90;;;;;;4909072;29;20032;-73
2022/10/23 10:34:36;;;;;;;3.65;1.40;;;26.50;56.70;;;;;;4921118;29;20034;-73
2022/10/23 10:37:17;;;;;;;4.85;1.33;;;25.60;58.20;;;;;;4921023;29;20094;-73
2022/10/23 10:39:57;;;;;;;4.00;1.42;;;24.00;62.70;;;;;;4920912;29;20059;-74
2022/10/23 10:42:30;;;;;;;4.57;1.40;;;22.90;66.10;;;;;;4916436;29;20102;-72
2022/10/23 10:45:03;;;;;;;3.22;1.40;;;22.60;67.80;;;;;;4920898;29;20043;-71
2022/10/23 10:47:51;;;;;;;3.30;1.50;;;23.00;67.10;;;;;;4917758;29;20870;-72
2022/10/23 10:50:32;;;;;;;5.15;1.50;;;23.60;65.60;;;;;;4917939;29;20641;-73
2022/10/23 10:53:38;;;;;;;6.65;1.35;;;23.60;64.00;;;;;;4916213;29;20066;-73
2022/10/23 10:56:07;;;;;;;4.47;1.17;;;23.30;64.70;;;;;;4922001;29;20157;-73
2022/10/23 10:58:46;;;;;;;4.97;1.50;;;22.70;67.00;;;;;;4922119;29;20031;-74
2022/10/23 11:01:38;;;;;;;5.00;2.08;;;22.00;69.90;;;;;;4917704;29;20047;-76
2022/10/23 11:04:13;;;;;;;3.88;1.63;;;21.30;73.90;;;;;;4915274;29;20715;-77
2022/10/23 11:06:43;;;;;;;5.65;1.38;;;20.90;75.20;;;;;;4925992;29;20054;-76
2022/10/23 11:09:28;;;;;;;3.60;1.50;;;20.80;75.90;;;;;;4919594;29;20044;-75
2022/10/23 11:11:56;;;;;;;4.38;1.50;;;20.70;75.60;;;;;;4917245;29;20039;-81
2022/10/23 11:14:24;;;;;;;3.58;1.92;;;20.40;75.70;;;;;;4916658;29;20032;-76
2022/10/23 11:16:55;;;;;;;2.45;1.00;;;20.30;76.90;;;;;;4920712;29;20023;-76
2022/10/23 11:19:27;;;;;;;12.32;6.43;;;20.20;77.50;;;;;;4928353;29;20062;-76
2022/10/23 11:21:53;;;;;;;7.95;3.17;;;20.20;77.70;;;;;;4923227;29;20043;-76
2022/10/23 11:24:45;;;;;;;15.45;9.13;;;20.20;78.40;;;;;;4919844;29;20036;-76
2022/10/23 11:27:31;;;;;;;8.30;3.28;;;20.30;78.50;;;;;;4922428;29;20078;-82
2022/10/23 11:30:21;;;;;;;8.07;3.80;;;20.30;78.70;;;;;;4920560;29;20031;-84
2022/10/23 11:32:53;;;;;;;7.10;3.83;;;20.30;79.00;;;;;;4915623;29;20424;-81
2022/10/23 11:35:26;;;;;;;8.10;3.67;;;20.30;79.10;;;;;;4920234;29;20031;-82
2022/10/23 11:38:00;;;;;;;8.43;2.33;;;20.30;78.80;;;;;;4917884;29;20050;-83
2022/10/23 11:40:26;;;;;;;6.95;2.40;;;20.30;77.50;;;;;;4922325;29;20095;-83
2022/10/23 11:42:52;;;;;;;3.97;2.10;;;20.10;78.80;;;;;;4915983;29;20731;-82
2022/10/23 11:45:38;;;;;;;2.67;1.80;;;20.10;78.80;;;;;;4921028;29;20031;-72
2022/10/23 11:48:18;;;;;;;5.55;2.10;;;20.20;79.40;;;;;;4923872;29;20028;-71
2022/10/23 11:50:43;;;;;;;3.92;1.98;;;20.30;78.40;;;;;;4920763;29;20036;-70
2022/10/23 11:53:31;;;;;;;3.38;1.45;;;20.30;78.10;;;;;;4929852;29;20040;-71
2022/10/23 11:56:23;;;;;;;3.38;1.40;;;20.40;78.20;;;;;;4915476;29;20082;-71
2022/10/23 11:58:54;;;;;;;4.47;1.50;;;20.50;77.30;;;;;;4923889;29;20019;-74
2022/10/23 12:01:23;;;;;;;10.05;1.20;;;20.40;78.00;;;;;;4935227;28;20027;-70
2022/10/23 12:04:02;;;;;;;3.08;1.25;;;20.50;78.30;;;;;;4921474;29;20031;-70
2022/10/23 12:06:39;;;;;;;3.65;1.20;;;20.50;78.00;;;;;;4923088;29;20059;-70
2022/10/23 12:09:40;;;;;;;2.83;1.20;;;20.30;77.70;;;;;;4920686;29;20452;-70
2022/10/23 12:12:06;;;;;;;2.85;1.05;;;20.20;78.50;;;;;;4921974;29;20134;-69
2022/10/23 12:14:36;;;;;;;2.45;1.08;;;20.00;79.10;;;;;;4916837;29;20102;-69
2022/10/23 12:17:23;;;;;;;5.85;1.50;;;19.90;80.20;;;;;;4918972;29;20040;-69
2022/10/23 12:20:00;;;;;;;3.08;1.23;;;19.80;81.10;;;;;;4925160;29;20040;-70
2022/10/23 12:22:38;;;;;;;3.95;1.20;;;19.70;80.90;;;;;;4915313;29;20039;-69
2022/10/23 12:25:07;;;;;;;3.33;1.55;;;19.70;81.30;;;;;;4914571;29;20051;-68
2022/10/23 12:27:57;;;;;;;3.85;1.20;;;19.60;81.80;;;;;;4910368;29;20036;-68
2022/10/23 12:30:23;;;;;;;4.00;1.20;;;19.60;82.20;;;;;;4915062;29;20027;-68
2022/10/23 12:33:07;;;;;;;3.95;1.90;;;19.50;82.90;;;;;;4916690;29;20040;-68
2022/10/23 12:35:49;;;;;;;5.72;3.03;;;19.50;82.90;;;;;;4916679;29;20744;-68
2022/10/23 12:38:25;;;;;;;3.95;1.30;;;19.40;83.40;;;;;;4917744;29;20036;-67
2022/10/23 12:40:52;;;;;;;;;;;19.50;83.80;;;;;;4912590;29;20036;-76
2022/10/23 12:43:27;;;;;;;4.03;1.92;;;19.60;83.70;;;;;;4927442;29;19914;-76
2022/10/23 12:45:55;;;;;;;4.38;1.70;;;19.60;83.80;;;;;;4923301;29;20552;-77
2022/10/23 12:48:23;;;;;;;3.47;1.02;;;19.60;84.00;;;;;;4920767;29;20492;-76
2022/10/23 12:50:54;;;;;;;3.55;1.08;;;19.60;84.60;;;;;;4924135;29;20039;-76
2022/10/23 12:53:21;;;;;;;3.05;1.20;;;19.60;84.60;;;;;;4932919;29;20551;-76
2022/10/23 12:55:59;;;;;;;5.88;2.10;;;19.70;84.20;;;;;;4908918;29;20106;-69
2022/10/23 12:58:29;;;;;;;6.57;1.95;;;19.70;83.10;;;;;;4909006;29;20035;-69
2022/10/23 13:01:03;;;;;;;2.47;1.50;;;19.60;83.60;;;;;;4929826;29;20400;-69
2022/10/23 13:03:30;;;;;;;3.53;1.25;;;19.60;84.40;;;;;;4914315;29;20031;-69
2022/10/23 13:05:58;;;;;;;2.90;1.05;;;19.60;85.10;;;;;;4918971;29;20038;-69
2022/10/23 13:08:32;;;;;;;2.78;1.35;;;19.70;84.90;;;;;;4917326;29;20058;-69
2022/10/23 13:11:19;;;;;;;2.67;1.35;;;19.70;83.50;;;;;;4911362;29;20095;-69
2022/10/23 13:13:48;;;;;;;2.38;1.98;;;19.70;84.40;;;;;;4905685;29;20039;-76
2022/10/23 13:16:20;;;;;;;4.32;0.90;;;19.70;84.70;;;;;;4924133;29;20953;-76